createdAt,value
2016-11-24T00:00:05.230Z,1015.87
2016-11-24T00:01:05.247Z,1015.85
2016-11-24T00:02:05.265Z,1015.86
2016-11-24T00:03:05.286Z,1015.86
2016-11-24T00:04:05.305Z,1015.88
2016-11-24T00:05:05.321Z,1015.85
2016-11-24T00:06:05.342Z,1015.9
2016-11-24T00:07:05.361Z,1015.85
2016-11-24T00:08:05.378Z,1015.85
2016-11-24T00:09:05.397Z,1015.85
2016-11-24T00:10:05.416Z,1015.83
2016-11-24T00:12:05.454Z,1015.82
2016-11-24T00:13:05.471Z,1015.81
2016-11-24T00:14:05.490Z,1015.84
2016-11-24T00:15:05.507Z,1015.82
2016-11-24T00:16:05.527Z,1015.77
2016-11-24T00:17:05.546Z,1015.8
2016-11-24T00:18:05.563Z,1015.82
2016-11-24T00:19:05.584Z,1015.79
2016-11-24T00:20:05.600Z,1015.79
2016-11-24T00:21:05.618Z,1015.78
2016-11-24T00:22:05.637Z,1015.81
2016-11-24T00:23:05.656Z,1015.78
2016-11-24T00:24:05.674Z,1015.77
2016-11-24T00:25:05.693Z,1015.76
2016-11-24T00:26:05.714Z,1015.75
2016-11-24T00:28:05.748Z,1015.73
2016-11-24T00:29:05.769Z,1015.74
2016-11-24T00:30:05.788Z,1015.71
2016-11-24T00:31:05.805Z,1015.74
2016-11-24T00:32:05.822Z,1015.72
2016-11-24T00:33:05.843Z,1015.74
2016-11-24T00:34:05.862Z,1015.74
2016-11-24T00:35:05.880Z,1015.75
2016-11-24T00:36:05.899Z,1015.77
2016-11-24T00:37:05.916Z,1015.79
2016-11-24T00:38:05.934Z,1015.83
2016-11-24T00:39:05.952Z,1015.8
2016-11-24T00:40:05.974Z,1015.86
2016-11-24T00:41:05.992Z,1015.88
2016-11-24T00:42:06.010Z,1015.89
2016-11-24T00:44:06.048Z,1015.87
2016-11-24T00:45:06.065Z,1015.91
2016-11-24T00:46:06.083Z,1015.93
2016-11-24T00:47:06.102Z,1015.93
2016-11-24T00:48:06.123Z,1015.92
2016-11-24T00:49:06.139Z,1015.9
2016-11-24T00:50:06.158Z,1015.92
2016-11-24T00:51:06.177Z,1015.9
2016-11-24T00:52:06.196Z,1015.92
2016-11-24T00:53:06.214Z,1015.88
2016-11-24T00:54:06.235Z,1015.91
2016-11-24T00:55:06.252Z,1015.93
2016-11-24T00:56:06.270Z,1015.92
2016-11-24T00:57:06.291Z,1015.95
2016-11-24T00:59:06.329Z,1015.96
2016-11-24T01:00:06.345Z,1015.99
2016-11-24T01:01:06.364Z,1015.98
2016-11-24T01:02:06.384Z,1015.96
2016-11-24T01:03:06.405Z,1015.99
2016-11-24T01:04:06.421Z,1015.97
2016-11-24T01:05:06.439Z,1016
2016-11-24T01:06:06.459Z,1016
2016-11-24T01:07:06.479Z,1015.99
2016-11-24T01:08:06.498Z,1016.01
2016-11-24T01:09:06.517Z,1016
2016-11-24T01:10:06.536Z,1015.99
2016-11-24T01:11:06.554Z,1016.02
2016-11-24T01:12:06.571Z,1016.02
2016-11-24T01:13:06.590Z,1016
2016-11-24T01:14:06.611Z,1016.02
2016-11-24T01:15:06.627Z,1016
2016-11-24T01:16:06.649Z,1016.02
2016-11-24T01:17:06.665Z,1016.04
2016-11-24T01:18:06.683Z,1015.99
2016-11-24T01:19:06.703Z,1016.02
2016-11-24T01:20:06.724Z,1016
2016-11-24T01:21:06.743Z,1016.01
2016-11-24T01:22:06.761Z,1015.98
2016-11-24T01:23:06.780Z,1016.03
2016-11-24T01:24:06.799Z,1016.02
2016-11-24T01:25:06.816Z,1016.06
2016-11-24T01:26:06.834Z,1016.05
2016-11-24T01:27:06.853Z,1016.08
2016-11-24T01:28:06.874Z,1016.05
2016-11-24T01:29:06.893Z,1016.07
2016-11-24T01:31:06.929Z,1016.05
2016-11-24T01:32:06.950Z,1016.12
2016-11-24T01:33:06.970Z,1016.13
2016-11-24T01:34:06.987Z,1016.08
2016-11-24T01:35:07.004Z,1016.1
2016-11-24T01:36:07.023Z,1016.1
2016-11-24T01:37:07.043Z,1016.05
2016-11-24T01:38:07.063Z,1016.08
2016-11-24T01:39:07.080Z,1016.13
2016-11-24T01:40:07.099Z,1016.15
2016-11-24T01:41:07.116Z,1016.13
2016-11-24T01:42:07.138Z,1016.11
2016-11-24T01:43:07.156Z,1016.09
2016-11-24T01:44:07.175Z,1016.12
2016-11-24T01:45:07.191Z,1016.12
2016-11-24T01:47:07.230Z,1016.13
2016-11-24T01:48:07.250Z,1016.13
2016-11-24T01:49:07.266Z,1016.15
2016-11-24T01:50:07.288Z,1016.11
2016-11-24T01:51:07.304Z,1016.17
2016-11-24T01:52:07.325Z,1016.17
2016-11-24T01:53:07.341Z,1016.17
2016-11-24T01:54:07.360Z,1016.17
2016-11-24T01:55:07.379Z,1016.22
2016-11-24T01:56:07.398Z,1016.21
2016-11-24T01:57:07.419Z,1016.17
2016-11-24T01:58:07.438Z,1016.18
2016-11-24T01:59:07.453Z,1016.19
2016-11-24T02:00:07.473Z,1016.17
2016-11-24T02:01:07.494Z,1016.2
2016-11-24T02:03:07.531Z,1016.22
2016-11-24T02:04:07.549Z,1016.22
2016-11-24T02:05:07.567Z,1016.23
2016-11-24T02:06:07.584Z,1016.19
2016-11-24T02:07:07.604Z,1016.19
2016-11-24T02:08:07.622Z,1016.22
2016-11-24T02:09:07.641Z,1016.18
2016-11-24T02:10:07.660Z,1016.19
2016-11-24T02:11:07.681Z,1016.23
2016-11-24T02:12:07.698Z,1016.23
2016-11-24T02:13:07.716Z,1016.21
2016-11-24T02:14:07.734Z,1016.22
2016-11-24T02:15:07.753Z,1016.25
2016-11-24T02:16:07.774Z,1016.21
2016-11-24T02:17:07.790Z,1016.21
2016-11-24T02:19:07.830Z,1016.2
2016-11-24T02:20:07.849Z,1016.27
2016-11-24T02:21:07.867Z,1016.31
2016-11-24T02:22:07.884Z,1016.33
2016-11-24T02:23:07.905Z,1016.32
2016-11-24T02:24:07.923Z,1016.32
2016-11-24T02:25:07.940Z,1016.32
2016-11-24T02:26:07.961Z,1016.31
2016-11-24T02:27:07.989Z,1016.28
2016-11-24T02:28:07.997Z,1016.34
2016-11-24T02:29:08.015Z,1016.33
2016-11-24T02:30:08.036Z,1016.35
2016-11-24T02:31:08.055Z,1016.36
2016-11-24T02:32:08.074Z,1016.36
2016-11-24T02:34:08.111Z,1016.33
2016-11-24T02:35:08.129Z,1016.38
2016-11-24T02:36:08.148Z,1016.37
2016-11-24T02:37:08.168Z,1016.39
2016-11-24T02:38:08.184Z,1016.37
2016-11-24T02:39:08.202Z,1016.4
2016-11-24T02:40:08.221Z,1016.39
2016-11-24T02:41:08.240Z,1016.4
2016-11-24T02:42:08.258Z,1016.38
2016-11-24T02:43:08.279Z,1016.38
2016-11-24T02:44:08.295Z,1016.38
2016-11-24T02:45:08.317Z,1016.38
2016-11-24T02:46:08.335Z,1016.37
2016-11-24T02:47:08.352Z,1016.33
2016-11-24T02:48:08.370Z,1016.31
2016-11-24T02:49:08.389Z,1016.31
2016-11-24T02:50:08.407Z,1016.35
2016-11-24T02:51:08.428Z,1016.33
2016-11-24T02:52:08.446Z,1016.3
2016-11-24T02:53:08.515Z,1016.34
2016-11-24T02:54:08.481Z,1016.36
2016-11-24T02:55:08.500Z,1016.39
2016-11-24T02:56:08.521Z,1016.42
2016-11-24T02:57:08.539Z,1016.43
2016-11-24T02:58:08.558Z,1016.4
2016-11-24T02:59:08.575Z,1016.44
2016-11-24T03:00:08.595Z,1016.43
2016-11-24T03:01:08.611Z,1016.43
2016-11-24T03:02:08.632Z,1016.45
2016-11-24T03:03:08.651Z,1016.46
2016-11-24T03:04:08.668Z,1016.49
2016-11-24T03:06:08.706Z,1016.52
2016-11-24T03:07:08.722Z,1016.5
2016-11-24T03:08:08.790Z,1016.53
2016-11-24T03:09:08.761Z,1016.56
2016-11-24T03:10:08.777Z,1016.55
2016-11-24T03:11:08.799Z,1016.53
2016-11-24T03:12:08.816Z,1016.55
2016-11-24T03:13:08.835Z,1016.5
2016-11-24T03:14:08.851Z,1016.52
2016-11-24T03:15:08.869Z,1016.48
2016-11-24T03:16:08.894Z,1016.5
2016-11-24T03:17:08.906Z,1016.48
2016-11-24T03:18:08.927Z,1016.5
2016-11-24T03:19:08.945Z,1016.55
2016-11-24T03:20:08.963Z,1016.51
2016-11-24T03:22:09.001Z,1016.47
2016-11-24T03:23:09.018Z,1016.46
2016-11-24T03:24:09.035Z,1016.54
2016-11-24T03:25:09.054Z,1016.57
2016-11-24T03:26:09.073Z,1016.59
2016-11-24T03:27:09.090Z,1016.6
2016-11-24T03:28:09.109Z,1016.61
2016-11-24T03:29:09.130Z,1016.59
2016-11-24T03:30:09.145Z,1016.61
2016-11-24T03:31:09.166Z,1016.59
2016-11-24T03:32:09.185Z,1016.62
2016-11-24T03:33:09.204Z,1016.61
2016-11-24T03:34:09.221Z,1016.59
2016-11-24T03:35:09.238Z,1016.58
2016-11-24T03:36:09.259Z,1016.57
2016-11-24T03:38:09.295Z,1016.64
2016-11-24T03:39:09.314Z,1016.64
2016-11-24T03:40:09.331Z,1016.67
2016-11-24T03:41:09.348Z,1016.67
2016-11-24T03:42:09.369Z,1016.69
2016-11-24T03:43:09.388Z,1016.66
2016-11-24T03:44:09.405Z,1016.61
2016-11-24T03:45:09.424Z,1016.68
2016-11-24T03:46:09.443Z,1016.71
2016-11-24T03:47:09.462Z,1016.66
2016-11-24T03:48:09.478Z,1016.67
2016-11-24T03:49:09.499Z,1016.64
2016-11-24T03:50:09.518Z,1016.65
2016-11-24T03:51:09.536Z,1016.65
2016-11-24T03:52:09.552Z,1016.63
2016-11-24T03:54:09.592Z,1016.64
2016-11-24T03:55:09.610Z,1016.71
2016-11-24T03:56:09.628Z,1016.68
2016-11-24T03:57:09.647Z,1016.72
2016-11-24T03:58:09.663Z,1016.65
2016-11-24T03:59:09.683Z,1016.67
2016-11-24T04:00:09.700Z,1016.63
2016-11-24T04:01:09.721Z,1016.66
2016-11-24T04:02:09.739Z,1016.7
2016-11-24T04:03:09.755Z,1016.68
2016-11-24T04:04:09.776Z,1016.63
2016-11-24T04:05:09.794Z,1016.68
2016-11-24T04:06:09.811Z,1016.7
2016-11-24T04:07:09.831Z,1016.68
2016-11-24T04:09:09.867Z,1016.66
2016-11-24T04:10:09.885Z,1016.72
2016-11-24T04:11:09.953Z,1016.73
2016-11-24T04:12:09.925Z,1016.78
2016-11-24T04:13:09.941Z,1016.82
2016-11-24T04:14:09.960Z,1016.83
2016-11-24T04:15:09.977Z,1016.81
2016-11-24T04:16:10.001Z,1016.8
2016-11-24T04:17:10.014Z,1016.81
2016-11-24T04:18:10.035Z,1016.87
2016-11-24T04:19:10.051Z,1016.82
2016-11-24T04:20:10.070Z,1016.87
2016-11-24T04:21:10.092Z,1016.89
2016-11-24T04:22:10.107Z,1016.85
2016-11-24T04:23:10.127Z,1016.91
2016-11-24T04:24:10.144Z,1016.9
2016-11-24T04:25:10.164Z,1016.85
2016-11-24T04:26:10.181Z,1016.87
2016-11-24T04:27:10.203Z,1016.89
2016-11-24T04:28:10.219Z,1016.89
2016-11-24T04:29:10.236Z,1016.92
2016-11-24T04:30:10.255Z,1016.93
2016-11-24T04:31:10.275Z,1016.94
2016-11-24T04:32:10.343Z,1016.91
2016-11-24T04:33:10.312Z,1016.97
2016-11-24T04:34:10.329Z,1016.98
2016-11-24T04:35:10.347Z,1016.99
2016-11-24T04:36:10.367Z,1016.98
2016-11-24T04:37:10.384Z,1017.02
2016-11-24T04:38:10.402Z,1017.08
2016-11-24T04:39:10.422Z,1017.05
2016-11-24T04:41:10.457Z,1017.06
2016-11-24T04:42:10.476Z,1017.08
2016-11-24T04:43:10.494Z,1017.1
2016-11-24T04:44:10.512Z,1017.06
2016-11-24T04:45:10.533Z,1017.06
2016-11-24T04:46:10.552Z,1017.1
2016-11-24T04:47:10.567Z,1017.09
2016-11-24T04:48:10.588Z,1017.11
2016-11-24T04:49:10.607Z,1017.09
2016-11-24T04:50:10.625Z,1017.06
2016-11-24T04:51:10.643Z,1017.11
2016-11-24T04:52:10.662Z,1017.11
2016-11-24T04:53:10.683Z,1017.12
2016-11-24T04:54:10.696Z,1017.14
2016-11-24T04:55:10.715Z,1017.11
2016-11-24T04:57:10.754Z,1017.19
2016-11-24T04:58:10.770Z,1017.22
2016-11-24T04:59:10.788Z,1017.23
2016-11-24T05:00:10.807Z,1017.19
2016-11-24T05:01:10.827Z,1017.24
2016-11-24T05:02:10.844Z,1017.18
2016-11-24T05:03:10.864Z,1017.21
2016-11-24T05:04:10.883Z,1017.17
2016-11-24T05:05:10.900Z,1017.23
2016-11-24T05:06:10.919Z,1017.15
2016-11-24T05:07:10.937Z,1017.16
2016-11-24T05:08:10.954Z,1017.21
2016-11-24T05:09:10.971Z,1017.18
2016-11-24T05:10:10.992Z,1017.2
2016-11-24T05:11:11.011Z,1017.21
2016-11-24T05:13:11.047Z,1017.28
2016-11-24T05:14:11.063Z,1017.26
2016-11-24T05:15:11.084Z,1017.27
2016-11-24T05:16:11.099Z,1017.29
2016-11-24T05:17:11.121Z,1017.33
2016-11-24T05:18:11.136Z,1017.29
2016-11-24T05:19:11.155Z,1017.29
2016-11-24T05:20:11.173Z,1017.32
2016-11-24T05:21:11.194Z,1017.32
2016-11-24T05:22:11.211Z,1017.34
2016-11-24T05:23:11.227Z,1017.29
2016-11-24T05:24:11.246Z,1017.34
2016-11-24T05:25:11.267Z,1017.34
2016-11-24T05:26:11.286Z,1017.35
2016-11-24T05:27:11.301Z,1017.37
2016-11-24T05:29:11.339Z,1017.34
2016-11-24T05:30:11.360Z,1017.32
2016-11-24T05:31:11.377Z,1017.38
2016-11-24T05:32:11.394Z,1017.36
2016-11-24T05:33:11.415Z,1017.37
2016-11-24T05:34:11.433Z,1017.38
2016-11-24T05:35:11.449Z,1017.38
2016-11-24T05:36:11.471Z,1017.38
2016-11-24T05:37:11.489Z,1017.41
2016-11-24T05:38:11.507Z,1017.42
2016-11-24T05:39:11.526Z,1017.41
2016-11-24T05:40:11.543Z,1017.4
2016-11-24T05:41:11.561Z,1017.35
2016-11-24T05:42:11.580Z,1017.43
2016-11-24T05:44:11.620Z,1017.48
2016-11-24T05:45:11.638Z,1017.49
2016-11-24T05:46:11.655Z,1017.54
2016-11-24T05:47:11.674Z,1017.54
2016-11-24T05:48:11.692Z,1017.53
2016-11-24T05:49:11.712Z,1017.54
2016-11-24T05:50:11.729Z,1017.62
2016-11-24T05:51:11.750Z,1017.62
2016-11-24T05:52:11.768Z,1017.64
2016-11-24T05:53:11.787Z,1017.65
2016-11-24T05:54:11.807Z,1017.68
2016-11-24T05:55:11.825Z,1017.77
2016-11-24T05:56:11.844Z,1017.78
2016-11-24T05:57:11.859Z,1017.78
2016-11-24T05:58:11.880Z,1017.77
2016-11-24T05:59:11.897Z,1017.8
2016-11-24T06:00:11.917Z,1017.8
2016-11-24T06:01:11.937Z,1017.81
2016-11-24T06:02:11.953Z,1017.82
2016-11-24T06:03:11.973Z,1017.82
2016-11-24T06:04:11.990Z,1017.83
2016-11-24T06:05:12.011Z,1017.87
2016-11-24T06:06:12.027Z,1017.86
2016-11-24T06:07:12.047Z,1017.79
2016-11-24T06:08:12.065Z,1017.8
2016-11-24T06:09:12.085Z,1017.8
2016-11-24T06:10:12.105Z,1017.78
2016-11-24T06:11:12.120Z,1017.87
2016-11-24T06:12:12.141Z,1017.84
2016-11-24T06:13:12.208Z,1017.8
2016-11-24T06:14:12.178Z,1017.82
2016-11-24T06:16:12.216Z,1017.89
2016-11-24T06:17:12.233Z,1017.91
2016-11-24T06:18:12.251Z,1017.93
2016-11-24T06:19:12.272Z,1017.93
2016-11-24T06:20:12.288Z,1017.95
2016-11-24T06:21:12.310Z,1017.96
2016-11-24T06:22:12.328Z,1017.98
2016-11-24T06:23:12.347Z,1017.99
2016-11-24T06:24:12.363Z,1017.91
2016-11-24T06:25:12.381Z,1017.93
2016-11-24T06:26:12.403Z,1017.96
2016-11-24T06:27:12.421Z,1017.94
2016-11-24T06:28:12.440Z,1017.92
2016-11-24T06:29:12.458Z,1017.95
2016-11-24T06:30:12.477Z,1017.94
2016-11-24T06:32:12.515Z,1017.93
2016-11-24T06:33:12.531Z,1017.96
2016-11-24T06:34:12.552Z,1017.97
2016-11-24T06:35:12.569Z,1017.94
2016-11-24T06:36:12.587Z,1018.02
2016-11-24T06:37:12.608Z,1018.06
2016-11-24T06:38:12.625Z,1018.1
2016-11-24T06:39:12.644Z,1018.07
2016-11-24T06:40:12.662Z,1018.04
2016-11-24T06:41:12.683Z,1018.08
2016-11-24T06:42:12.702Z,1018.09
2016-11-24T06:43:12.721Z,1018.1
2016-11-24T06:44:12.737Z,1018.14
2016-11-24T06:45:12.758Z,1018.13
2016-11-24T06:46:12.777Z,1018.21
2016-11-24T06:48:12.812Z,1018.16
2016-11-24T06:49:12.830Z,1018.15
2016-11-24T06:50:12.851Z,1018.19
2016-11-24T06:51:12.869Z,1018.2
2016-11-24T06:52:12.886Z,1018.29
2016-11-24T06:53:12.907Z,1018.26
2016-11-24T06:54:12.926Z,1018.32
2016-11-24T06:55:12.943Z,1018.25
2016-11-24T06:56:12.960Z,1018.38
2016-11-24T06:57:12.981Z,1018.42
2016-11-24T06:58:12.997Z,1018.42
2016-11-24T06:59:13.016Z,1018.42
2016-11-24T07:00:13.037Z,1018.46
2016-11-24T07:01:13.056Z,1018.45
2016-11-24T07:02:13.073Z,1018.47
2016-11-24T07:04:13.111Z,1018.6
2016-11-24T07:05:13.147Z,1018.58
2016-11-24T07:06:13.145Z,1018.64
2016-11-24T07:07:13.164Z,1018.56
2016-11-24T07:08:13.183Z,1018.53
2016-11-24T07:09:13.201Z,1018.54
2016-11-24T07:10:13.220Z,1018.55
2016-11-24T07:11:13.241Z,1018.59
2016-11-24T07:12:13.258Z,1018.59
2016-11-24T07:13:13.278Z,1018.62
2016-11-24T07:14:13.296Z,1018.54
2016-11-24T07:15:13.313Z,1018.64
2016-11-24T07:16:13.332Z,1018.62
2016-11-24T07:17:13.351Z,1018.68
2016-11-24T07:19:13.389Z,1018.7
2016-11-24T07:20:13.408Z,1018.7
2016-11-24T07:21:13.575Z,1018.8
2016-11-24T07:22:13.446Z,1018.76
2016-11-24T07:23:13.465Z,1018.74
2016-11-24T07:24:13.481Z,1018.69
2016-11-24T07:25:13.499Z,1018.73
2016-11-24T07:26:13.521Z,1018.73
2016-11-24T07:27:13.539Z,1018.78
2016-11-24T07:28:13.557Z,1018.78
2016-11-24T07:29:13.574Z,1018.8
2016-11-24T07:30:13.593Z,1018.76
2016-11-24T07:31:13.611Z,1018.76
2016-11-24T07:32:13.632Z,1018.79
2016-11-24T07:33:13.651Z,1018.81
2016-11-24T07:34:13.670Z,1018.86
2016-11-24T07:35:13.688Z,1018.85
2016-11-24T07:36:13.707Z,1018.85
2016-11-24T07:37:13.724Z,1018.91
2016-11-24T07:38:13.742Z,1018.94
2016-11-24T07:39:13.761Z,1018.89
2016-11-24T07:40:13.780Z,1018.89
2016-11-24T07:41:13.802Z,1018.83
2016-11-24T07:42:13.819Z,1018.89
2016-11-24T07:43:13.836Z,1018.92
2016-11-24T07:44:13.858Z,1018.89
2016-11-24T07:45:13.875Z,1018.93
2016-11-24T07:46:13.893Z,1018.89
2016-11-24T07:47:13.914Z,1018.87
2016-11-24T07:48:13.931Z,1018.92
2016-11-24T07:49:13.949Z,1018.97
2016-11-24T07:51:13.990Z,1019.01
2016-11-24T07:52:14.009Z,1018.91
2016-11-24T07:53:14.027Z,1018.93
2016-11-24T07:54:14.044Z,1018.96
2016-11-24T07:55:14.066Z,1018.95
2016-11-24T07:56:14.135Z,1018.98
2016-11-24T07:57:14.103Z,1018.98
2016-11-24T07:58:14.122Z,1018.98
2016-11-24T07:59:14.139Z,1019.01
2016-11-24T08:00:14.158Z,1019.02
2016-11-24T08:01:14.179Z,1018.92
2016-11-24T08:02:14.198Z,1018.98
2016-11-24T08:03:14.216Z,1018.99
2016-11-24T08:04:14.234Z,1018.96
2016-11-24T08:05:14.254Z,1019.02
2016-11-24T08:07:14.292Z,1018.99
2016-11-24T08:08:14.313Z,1019.02
2016-11-24T08:09:14.331Z,1019.08
2016-11-24T08:10:14.399Z,1019.07
2016-11-24T08:11:14.370Z,1019.07
2016-11-24T08:12:14.389Z,1019.11
2016-11-24T08:13:14.406Z,1019.08
2016-11-24T08:14:14.426Z,1019.12
2016-11-24T08:15:14.447Z,1019.12
2016-11-24T08:16:14.464Z,1019.11
2016-11-24T08:17:14.486Z,1019.17
2016-11-24T08:18:14.503Z,1019.16
2016-11-24T08:19:14.524Z,1019.16
2016-11-24T08:20:14.542Z,1019.28
2016-11-24T08:21:14.561Z,1019.26
2016-11-24T08:23:14.601Z,1019.27
2016-11-24T08:24:14.619Z,1019.27
2016-11-24T08:25:14.641Z,1019.23
2016-11-24T08:26:14.661Z,1019.26
2016-11-24T08:27:14.679Z,1019.3
2016-11-24T08:28:14.699Z,1019.31
2016-11-24T08:29:14.717Z,1019.32
2016-11-24T08:30:14.737Z,1019.35
2016-11-24T08:31:14.758Z,1019.4
2016-11-24T08:32:14.775Z,1019.38
2016-11-24T08:33:14.794Z,1019.36
2016-11-24T08:34:14.816Z,1019.38
2016-11-24T08:35:14.834Z,1019.43
2016-11-24T08:36:14.854Z,1019.41
2016-11-24T08:37:14.875Z,1019.48
2016-11-24T08:39:14.913Z,1019.47
2016-11-24T08:40:14.933Z,1019.46
2016-11-24T08:41:14.952Z,1019.57
2016-11-24T08:42:14.974Z,1019.49
2016-11-24T08:43:14.992Z,1019.5
2016-11-24T08:44:15.011Z,1019.53
2016-11-24T08:45:15.033Z,1019.56
2016-11-24T08:46:15.051Z,1019.52
2016-11-24T08:47:15.074Z,1019.55
2016-11-24T08:48:15.090Z,1019.56
2016-11-24T08:49:15.113Z,1019.56
2016-11-24T08:50:15.133Z,1019.5
2016-11-24T08:51:15.153Z,1019.49
2016-11-24T08:52:15.173Z,1019.45
2016-11-24T08:54:15.211Z,1019.5
2016-11-24T08:55:15.233Z,1019.48
2016-11-24T08:56:15.250Z,1019.47
2016-11-24T08:57:15.271Z,1019.46
2016-11-24T08:58:15.291Z,1019.53
2016-11-24T08:59:15.312Z,1019.51
2016-11-24T09:00:15.330Z,1019.48
2016-11-24T09:01:15.350Z,1019.49
2016-11-24T09:02:15.370Z,1019.49
2016-11-24T09:03:15.390Z,1019.44
2016-11-24T09:04:15.410Z,1019.4
2016-11-24T09:05:15.430Z,1019.43
2016-11-24T09:06:15.451Z,1019.52
2016-11-24T09:07:15.471Z,1019.5
2016-11-24T09:08:15.489Z,1019.57
2016-11-24T09:09:15.510Z,1019.61
2016-11-24T09:10:15.529Z,1019.67
2016-11-24T09:11:15.551Z,1019.69
2016-11-24T09:12:15.571Z,1019.63
2016-11-24T09:13:15.590Z,1019.7
2016-11-24T09:14:15.611Z,1019.65
2016-11-24T09:15:15.631Z,1019.68
2016-11-24T09:16:15.649Z,1019.73
2016-11-24T09:17:15.668Z,1019.7
2016-11-24T09:18:15.690Z,1019.78
2016-11-24T09:19:15.708Z,1019.74
2016-11-24T09:20:15.728Z,1019.76
2016-11-24T09:21:15.749Z,1019.73
2016-11-24T09:22:15.770Z,1019.62
2016-11-24T09:23:15.790Z,1019.71
2016-11-24T09:24:15.807Z,1019.74
2016-11-24T09:26:15.850Z,1019.74
2016-11-24T09:27:15.867Z,1019.68
2016-11-24T09:28:15.889Z,1019.72
2016-11-24T09:29:15.907Z,1019.65
2016-11-24T09:30:15.927Z,1019.68
2016-11-24T09:31:15.947Z,1019.62
2016-11-24T09:32:15.967Z,1019.69
2016-11-24T09:33:15.986Z,1019.78
2016-11-24T09:34:16.007Z,1019.73
2016-11-24T09:35:16.026Z,1019.71
2016-11-24T09:36:16.049Z,1019.7
2016-11-24T09:37:16.067Z,1019.74
2016-11-24T09:38:16.089Z,1019.82
2016-11-24T09:39:16.107Z,1019.7
2016-11-24T09:40:16.128Z,1019.72
2016-11-24T09:42:16.168Z,1019.73
2016-11-24T09:43:16.192Z,1019.69
2016-11-24T09:44:16.207Z,1019.77
2016-11-24T09:45:16.230Z,1019.77
2016-11-24T09:46:16.247Z,1019.87
2016-11-24T09:47:16.275Z,1019.83
2016-11-24T09:48:16.288Z,1019.81
2016-11-24T09:49:16.310Z,1019.88
2016-11-24T09:50:16.329Z,1019.8
2016-11-24T09:51:16.348Z,1019.82
2016-11-24T09:52:16.368Z,1019.76
2016-11-24T09:53:16.391Z,1019.74
2016-11-24T09:54:16.408Z,1019.73
2016-11-24T09:55:16.428Z,1019.78
2016-11-24T09:56:16.451Z,1019.82
2016-11-24T09:58:16.491Z,1019.79
2016-11-24T09:59:16.509Z,1019.75
2016-11-24T10:00:16.529Z,1019.77
2016-11-24T10:01:16.551Z,1019.85
2016-11-24T10:02:16.571Z,1019.83
2016-11-24T10:03:16.592Z,1019.9
2016-11-24T10:04:16.609Z,1019.87
2016-11-24T10:05:16.631Z,1019.86
2016-11-24T10:06:16.649Z,1019.85
2016-11-24T10:07:16.670Z,1019.93
2016-11-24T10:08:16.691Z,1019.87
2016-11-24T10:09:16.709Z,1019.92
2016-11-24T10:10:16.729Z,1019.87
2016-11-24T10:11:16.752Z,1019.85
2016-11-24T10:12:16.769Z,1019.84
2016-11-24T10:14:16.812Z,1019.81
2016-11-24T10:15:16.832Z,1019.73
2016-11-24T10:16:16.849Z,1019.76
2016-11-24T10:17:16.869Z,1019.87
2016-11-24T10:18:16.897Z,1019.79
2016-11-24T10:19:16.909Z,1019.78
2016-11-24T10:20:16.929Z,1019.77
2016-11-24T10:21:16.949Z,1019.76
2016-11-24T10:22:16.971Z,1019.78
2016-11-24T10:23:16.991Z,1019.77
2016-11-24T10:24:17.011Z,1019.79
2016-11-24T10:25:17.031Z,1019.81
2016-11-24T10:26:17.051Z,1019.76
2016-11-24T10:27:17.069Z,1019.87
2016-11-24T10:29:17.109Z,1019.76
2016-11-24T10:30:17.128Z,1019.71
2016-11-24T10:31:17.151Z,1019.78
2016-11-24T10:32:17.169Z,1019.85
2016-11-24T10:33:17.188Z,1019.81
2016-11-24T10:34:17.208Z,1019.76
2016-11-24T10:35:17.229Z,1019.71
2016-11-24T10:36:17.250Z,1019.76
2016-11-24T10:37:17.293Z,1019.8
2016-11-24T10:38:17.289Z,1019.77
2016-11-24T10:39:17.307Z,1019.72
2016-11-24T10:40:17.327Z,1019.73
2016-11-24T10:41:17.348Z,1019.75
2016-11-24T10:42:17.368Z,1019.78
2016-11-24T10:43:17.388Z,1019.67
2016-11-24T10:44:17.406Z,1019.66
2016-11-24T10:45:17.425Z,1019.72
2016-11-24T10:46:17.445Z,1019.75
2016-11-24T10:47:17.467Z,1019.66
2016-11-24T10:48:17.485Z,1019.72
2016-11-24T10:49:17.506Z,1019.69
2016-11-24T10:50:17.523Z,1019.7
2016-11-24T10:51:17.543Z,1019.79
2016-11-24T10:52:17.562Z,1019.71
2016-11-24T10:53:17.583Z,1019.68
2016-11-24T10:54:17.633Z,1019.69
2016-11-24T10:55:17.622Z,1019.71
2016-11-24T10:56:17.641Z,1019.77
2016-11-24T10:57:17.664Z,1019.76
2016-11-24T10:58:17.684Z,1019.81
2016-11-24T10:59:17.703Z,1019.79
2016-11-24T11:01:17.741Z,1019.79
2016-11-24T11:02:17.761Z,1019.84
2016-11-24T11:03:17.780Z,1019.81
2016-11-24T11:04:17.800Z,1019.81
2016-11-24T11:05:17.821Z,1019.82
2016-11-24T11:06:17.841Z,1019.92
2016-11-24T11:07:17.862Z,1019.76
2016-11-24T11:08:17.880Z,1019.79
2016-11-24T11:09:17.902Z,1019.83
2016-11-24T11:10:17.923Z,1019.89
2016-11-24T11:11:17.939Z,1019.72
2016-11-24T11:12:17.962Z,1019.74
2016-11-24T11:13:17.982Z,1019.77
2016-11-24T11:14:17.999Z,1019.7
2016-11-24T11:15:18.021Z,1019.73
2016-11-24T11:17:18.062Z,1019.76
2016-11-24T11:18:18.081Z,1019.71
2016-11-24T11:19:18.112Z,1019.72
2016-11-24T11:20:18.121Z,1019.75
2016-11-24T11:21:18.140Z,1019.78
2016-11-24T11:22:18.162Z,1019.83
2016-11-24T11:23:18.181Z,1019.79
2016-11-24T11:24:18.252Z,1019.72
2016-11-24T11:25:18.220Z,1019.71
2016-11-24T11:26:18.240Z,1019.78
2016-11-24T11:27:18.260Z,1019.76
2016-11-24T11:28:18.278Z,1019.69
2016-11-24T11:29:18.297Z,1019.67
2016-11-24T11:30:18.320Z,1019.7
2016-11-24T11:31:18.338Z,1019.6
2016-11-24T11:33:18.377Z,1019.58
2016-11-24T11:34:18.450Z,1019.54
2016-11-24T11:35:18.420Z,1019.56
2016-11-24T11:36:18.439Z,1019.54
2016-11-24T11:37:18.460Z,1019.54
2016-11-24T11:38:18.478Z,1019.55
2016-11-24T11:39:18.498Z,1019.62
2016-11-24T11:40:18.517Z,1019.58
2016-11-24T11:41:18.538Z,1019.58
2016-11-24T11:42:18.560Z,1019.55
2016-11-24T11:43:18.579Z,1019.61
2016-11-24T11:44:18.598Z,1019.65
2016-11-24T11:45:18.618Z,1019.6
2016-11-24T11:46:18.641Z,1019.61
2016-11-24T11:47:18.658Z,1019.54
2016-11-24T11:49:18.699Z,1019.54
2016-11-24T11:50:18.720Z,1019.6
2016-11-24T11:51:18.739Z,1019.67
2016-11-24T11:52:18.761Z,1019.62
2016-11-24T11:53:18.781Z,1019.57
2016-11-24T11:54:18.801Z,1019.61
2016-11-24T11:55:18.869Z,1019.58
2016-11-24T11:56:18.843Z,1019.54
2016-11-24T11:57:18.862Z,1019.56
2016-11-24T11:58:18.882Z,1019.62
2016-11-24T11:59:18.903Z,1019.62
2016-11-24T12:00:18.920Z,1019.55
2016-11-24T12:01:18.943Z,1019.57
2016-11-24T12:02:18.963Z,1019.53
2016-11-24T12:04:19.004Z,1019.61
2016-11-24T12:05:19.021Z,1019.57
2016-11-24T12:06:19.044Z,1019.57
2016-11-24T12:07:19.064Z,1019.61
2016-11-24T12:08:19.084Z,1019.57
2016-11-24T12:09:19.102Z,1019.62
2016-11-24T12:10:19.124Z,1019.57
2016-11-24T12:11:19.145Z,1019.58
2016-11-24T12:12:19.164Z,1019.61
2016-11-24T12:13:19.191Z,1019.58
2016-11-24T12:14:19.203Z,1019.57
2016-11-24T12:15:19.274Z,1019.55
2016-11-24T12:16:19.245Z,1019.54
2016-11-24T12:17:19.265Z,1019.56
2016-11-24T12:18:19.285Z,1019.63
2016-11-24T12:19:19.306Z,1019.65
2016-11-24T12:20:19.323Z,1019.6
2016-11-24T12:21:19.344Z,1019.54
2016-11-24T12:22:19.364Z,1019.59
2016-11-24T12:23:19.384Z,1019.54
2016-11-24T12:24:19.406Z,1019.53
2016-11-24T12:25:19.424Z,1019.56
2016-11-24T12:26:19.445Z,1019.53
2016-11-24T12:27:19.466Z,1019.54
2016-11-24T12:28:19.487Z,1019.53
2016-11-24T12:29:19.505Z,1019.54
2016-11-24T12:30:19.525Z,1019.54
2016-11-24T12:31:19.547Z,1019.52
2016-11-24T12:32:19.565Z,1019.51
2016-11-24T12:33:19.588Z,1019.54
2016-11-24T12:34:19.607Z,1019.52
2016-11-24T12:36:19.646Z,1019.51
2016-11-24T12:37:19.671Z,1019.52
2016-11-24T12:38:19.688Z,1019.5
2016-11-24T12:39:19.708Z,1019.52
2016-11-24T12:40:19.726Z,1019.54
2016-11-24T12:41:19.747Z,1019.52
2016-11-24T12:42:19.768Z,1019.5
2016-11-24T12:43:19.789Z,1019.59
2016-11-24T12:44:19.807Z,1019.52
2016-11-24T12:45:19.828Z,1019.55
2016-11-24T12:46:20.147Z,1019.52
2016-11-24T12:47:19.867Z,1019.55
2016-11-24T12:48:19.889Z,1019.57